Observations for NEW YORK JF KENNEDY, NY (JFK)

KJFK 240851Z 29006KT 10SM FEW250 20/15 A2988 RMK AO2 SLP118 T02000150 55001 
KJFK 240751Z 25006KT 10SM FEW250 19/16 A2988 RMK AO2 SLP117 T01940156   
KJFK 240651Z 27006KT 10SM FEW250 21/15 A2988 RMK AO2 SLP117 T02060150   
KJFK 240551Z 29007KT 10SM FEW250 23/13 A2988 RMK AO2 SLP119 T02280133 10272 20228 50001 
KJFK 240451Z 27009KT 10SM FEW250 23/13 A2989 RMK AO2 SLP120 T02330133 402940178 
KJFK 240351Z 27010KT 10SM FEW250 24/13 A2989 RMK AO2 SLP121 T02440133   
KJFK 240251Z 25010KT 10SM FEW250 23/14 A2988 RMK AO2 SLP118 T02330144 53003 
KJFK 240151Z 24011KT 10SM FEW250 24/16 A2988 RMK AO2 SLP118 T02390156   
KJFK 240051Z 23010KT 10SM FEW250 24/15 A2987 RMK AO2 SLP114 T02440150   
KJFK 232351Z 26010KT 10SM SCT250 27/13 A2987 RMK AO2 WSHFT 2252 SLP115 T02720128 10294 20244 58011  
KJFK 232308Z 26013KT 10SM CLR 28/12 A2988 RMK AO2 WSHFT 2252 T02780122
KJFK 232308Z COR 26013KT 10SM SCT250 28/12 A2988 RMK AO2 WSHFT 2252 T02780122
KJFK 232251Z 23009KT 10SM SCT250 26/17 A2989 RMK AO2 SLP121 T02560167   
KJFK 232151Z 19015KT 10SM SCT250 25/17 A2990 RMK AO2 SLP126 T02500167   
KJFK 232051Z 20016KT 10SM SCT250 26/16 A2990 RMK AO2 SLP126 T02560156 56009 
KJFK 231951Z 26012G16KT 10SM SCT250 28/12 A2991 RMK AO2 SLP127 T02830117
KJFK 231851Z 27009G16KT 10SM FEW070 SCT250 29/13 A2991 RMK AO2 SLP128 T02890128 
KJFK 231751Z 28011G17KT 10SM FEW065 SCT250 28/12 A2993 RMK AO2 SLP135 T02780117 10283 20217 56025   
KJFK 231651Z COR 31011KT 10SM SCT250 28/12 A2995 RMK AO2 SLP141 T02780117   
KJFK 231551Z 33010G20KT 10SM FEW060 FEW200 SCT250 27/11 A2997 RMK AO2 PK WND 33032/1520 SLP149 T02670106
KJFK 231451Z 33011KT 10SM FEW200 SCT250 26/12 A3001 RMK AO2 SLP161 T02610122 58007  
KJFK 231351Z 35016KT 10SM FEW200 SCT250 24/12 A3002 RMK AO2 SLP165 T02440122
KJFK 231251Z 32015G20KT 10SM FEW200 SCT250 23/12 A3003 RMK AO2 SLP168 T02280117 
KJFK 231151Z 33013KT 10SM FEW200 FEW250 22/11 A3003 RMK AO2 SLP168 T02170111 10217 20178 50008  
KJFK 231051Z 32012KT 10SM FEW200 FEW250 20/11 A3003 RMK AO2 SLP168 T02000111
KJFK 230951Z 30008KT 10SM FEW250 19/11 A3002 RMK AO2 SLP164 T01890111   
KJFK 230851Z 28006KT 10SM FEW250 18/11 A3000 RMK AO2 SLP159 T01830111 53001